sensor_id;sensor_type;location;lat;lon;timestamp;temperature;humidity
18426;DHT22;9340;48.756;9.226;2022-08-07T00:01:37;14.00;99.90
18426;DHT22;9340;48.756;9.226;2022-08-07T00:04:03;14.00;99.90
18426;DHT22;9340;48.756;9.226;2022-08-07T00:06:30;14.00;99.90
18426;DHT22;9340;48.756;9.226;2022-08-07T00:08:58;13.80;99.90
18426;DHT22;9340;48.756;9.226;2022-08-07T00:11:25;13.80;99.90
18426;DHT22;9340;48.756;9.226;2022-08-07T00:13:52;13.80;99.90
18426;DHT22;9340;48.756;9.226;2022-08-07T00:16:19;13.90;99.90
18426;DHT22;9340;48.756;9.226;2022-08-07T00:18:45;13.90;99.90
18426;DHT22;9340;48.756;9.226;2022-08-07T00:21:12;13.80;99.90
18426;DHT22;9340;48.756;9.226;2022-08-07T00:23:39;13.80;99.90
18426;DHT22;9340;48.756;9.226;2022-08-07T00:26:09;13.80;99.90
18426;DHT22;9340;48.756;9.226;2022-08-07T00:28:36;13.80;99.90
18426;DHT22;9340;48.756;9.226;2022-08-07T00:31:06;13.70;99.90
18426;DHT22;9340;48.756;9.226;2022-08-07T00:33:34;13.60;99.90
18426;DHT22;9340;48.756;9.226;2022-08-07T00:36:02;13.70;99.90
18426;DHT22;9340;48.756;9.226;2022-08-07T00:38:29;13.70;99.90
18426;DHT22;9340;48.756;9.226;2022-08-07T00:40:55;13.70;99.90
18426;DHT22;9340;48.756;9.226;2022-08-07T00:43:23;13.70;99.90
18426;DHT22;9340;48.756;9.226;2022-08-07T00:45:50;13.60;99.90
18426;DHT22;9340;48.756;9.226;2022-08-07T00:48:16;13.60;99.90
18426;DHT22;9340;48.756;9.226;2022-08-07T00:50:43;13.60;99.90
18426;DHT22;9340;48.756;9.226;2022-08-07T00:53:10;13.40;99.90
18426;DHT22;9340;48.756;9.226;2022-08-07T00:55:37;13.50;99.90
18426;DHT22;9340;48.756;9.226;2022-08-07T00:58:04;13.40;99.90
18426;DHT22;9340;48.756;9.226;2022-08-07T01:00:32;13.30;99.90
18426;DHT22;9340;48.756;9.226;2022-08-07T01:02:59;13.30;99.90
18426;DHT22;9340;48.756;9.226;2022-08-07T01:05:26;13.30;99.90
18426;DHT22;9340;48.756;9.226;2022-08-07T01:07:53;13.40;99.90
18426;DHT22;9340;48.756;9.226;2022-08-07T01:10:20;13.30;99.90
18426;DHT22;9340;48.756;9.226;2022-08-07T01:12:47;13.30;99.90
18426;DHT22;9340;48.756;9.226;2022-08-07T01:15:15;13.30;99.90
18426;DHT22;9340;48.756;9.226;2022-08-07T01:17:43;13.20;99.90
18426;DHT22;9340;48.756;9.226;2022-08-07T01:20:11;13.10;99.90
18426;DHT22;9340;48.756;9.226;2022-08-07T01:22:40;13.20;99.90
18426;DHT22;9340;48.756;9.226;2022-08-07T01:25:10;13.30;99.90
18426;DHT22;9340;48.756;9.226;2022-08-07T01:27:37;13.20;99.90
18426;DHT22;9340;48.756;9.226;2022-08-07T01:30:05;13.20;99.90
18426;DHT22;9340;48.756;9.226;2022-08-07T01:32:32;13.10;99.90
18426;DHT22;9340;48.756;9.226;2022-08-07T01:35:00;13.00;99.90
18426;DHT22;9340;48.756;9.226;2022-08-07T01:37:27;13.10;99.90
18426;DHT22;9340;48.756;9.226;2022-08-07T01:39:55;13.10;99.90
18426;DHT22;9340;48.756;9.226;2022-08-07T01:42:24;13.10;99.90
18426;DHT22;9340;48.756;9.226;2022-08-07T01:44:51;13.10;99.90
18426;DHT22;9340;48.756;9.226;2022-08-07T01:47:18;13.10;99.90
18426;DHT22;9340;48.756;9.226;2022-08-07T01:49:45;13.00;99.90
18426;DHT22;9340;48.756;9.226;2022-08-07T01:52:13;13.00;99.90
18426;DHT22;9340;48.756;9.226;2022-08-07T01:54:41;13.00;99.90
18426;DHT22;9340;48.756;9.226;2022-08-07T01:57:14;12.90;99.90
18426;DHT22;9340;48.756;9.226;2022-08-07T01:59:44;12.90;99.90
18426;DHT22;9340;48.756;9.226;2022-08-07T02:02:18;12.90;99.90
18426;DHT22;9340;48.756;9.226;2022-08-07T02:04:50;12.90;99.90
18426;DHT22;9340;48.756;9.226;2022-08-07T02:07:19;12.90;99.90
18426;DHT22;9340;48.756;9.226;2022-08-07T02:09:48;12.80;99.90
18426;DHT22;9340;48.756;9.226;2022-08-07T02:12:19;12.90;99.90
18426;DHT22;9340;48.756;9.226;2022-08-07T02:14:50;12.90;99.90
18426;DHT22;9340;48.756;9.226;2022-08-07T02:17:18;12.90;99.90
18426;DHT22;9340;48.756;9.226;2022-08-07T02:19:47;12.80;99.90
18426;DHT22;9340;48.756;9.226;2022-08-07T02:22:15;12.70;99.90
18426;DHT22;9340;48.756;9.226;2022-08-07T02:24:45;12.70;99.90
18426;DHT22;9340;48.756;9.226;2022-08-07T02:27:13;12.70;99.90
18426;DHT22;9340;48.756;9.226;2022-08-07T02:29:43;12.70;99.90
18426;DHT22;9340;48.756;9.226;2022-08-07T02:32:12;12.70;99.90
18426;DHT22;9340;48.756;9.226;2022-08-07T02:34:40;12.70;99.90
18426;DHT22;9340;48.756;9.226;2022-08-07T02:37:08;12.70;99.90
18426;DHT22;9340;48.756;9.226;2022-08-07T02:39:38;12.60;99.90
18426;DHT22;9340;48.756;9.226;2022-08-07T02:42:06;12.60;99.90
18426;DHT22;9340;48.756;9.226;2022-08-07T02:44:34;12.60;99.90
18426;DHT22;9340;48.756;9.226;2022-08-07T02:47:04;12.60;99.90
18426;DHT22;9340;48.756;9.226;2022-08-07T02:49:32;12.60;99.90
18426;DHT22;9340;48.756;9.226;2022-08-07T02:52:00;12.50;99.90
18426;DHT22;9340;48.756;9.226;2022-08-07T02:54:30;12.50;99.90
18426;DHT22;9340;48.756;9.226;2022-08-07T02:57:00;12.60;99.90
18426;DHT22;9340;48.756;9.226;2022-08-07T02:59:28;12.50;99.90
18426;DHT22;9340;48.756;9.226;2022-08-07T03:01:57;12.40;99.90
18426;DHT22;9340;48.756;9.226;2022-08-07T03:04:26;12.40;99.90
18426;DHT22;9340;48.756;9.226;2022-08-07T03:06:53;12.40;99.90
18426;DHT22;9340;48.756;9.226;2022-08-07T03:09:21;12.40;99.90
18426;DHT22;9340;48.756;9.226;2022-08-07T03:11:49;12.40;99.90
18426;DHT22;9340;48.756;9.226;2022-08-07T03:14:16;12.50;99.90
18426;DHT22;9340;48.756;9.226;2022-08-07T03:16:44;12.40;99.90
18426;DHT22;9340;48.756;9.226;2022-08-07T03:19:11;12.30;99.90
18426;DHT22;9340;48.756;9.226;2022-08-07T03:21:39;12.30;99.90
18426;DHT22;9340;48.756;9.226;2022-08-07T03:24:06;12.20;99.90
18426;DHT22;9340;48.756;9.226;2022-08-07T03:26:34;12.10;99.90
18426;DHT22;9340;48.756;9.226;2022-08-07T03:29:04;12.10;99.90
18426;DHT22;9340;48.756;9.226;2022-08-07T03:31:31;12.20;99.90
18426;DHT22;9340;48.756;9.226;2022-08-07T03:34:00;12.20;99.90
18426;DHT22;9340;48.756;9.226;2022-08-07T03:36:28;12.30;99.90
18426;DHT22;9340;48.756;9.226;2022-08-07T03:39:00;12.20;99.90
18426;DHT22;9340;48.756;9.226;2022-08-07T03:41:29;12.20;99.90
18426;DHT22;9340;48.756;9.226;2022-08-07T03:43:57;12.20;99.90
18426;DHT22;9340;48.756;9.226;2022-08-07T03:46:24;12.10;99.90
18426;DHT22;9340;48.756;9.226;2022-08-07T03:48:52;12.00;99.90
18426;DHT22;9340;48.756;9.226;2022-08-07T03:51:20;12.10;99.90
18426;DHT22;9340;48.756;9.226;2022-08-07T03:53:47;12.10;99.90
18426;DHT22;9340;48.756;9.226;2022-08-07T03:56:18;12.10;99.90
18426;DHT22;9340;48.756;9.226;2022-08-07T03:58:45;12.00;99.90
18426;DHT22;9340;48.756;9.226;2022-08-07T04:01:12;12.00;99.90
18426;DHT22;9340;48.756;9.226;2022-08-07T04:03:39;12.00;99.90
18426;DHT22;9340;48.756;9.226;2022-08-07T04:06:07;11.90;99.90
18426;DHT22;9340;48.756;9.226;2022-08-07T04:08:34;11.90;99.90
18426;DHT22;9340;48.756;9.226;2022-08-07T04:11:02;11.90;99.90
18426;DHT22;9340;48.756;9.226;2022-08-07T04:13:32;12.00;99.90
18426;DHT22;9340;48.756;9.226;2022-08-07T04:15:58;12.00;99.90
18426;DHT22;9340;48.756;9.226;2022-08-07T04:18:25;12.00;99.90
18426;DHT22;9340;48.756;9.226;2022-08-07T04:20:52;12.00;99.90
18426;DHT22;9340;48.756;9.226;2022-08-07T04:23:19;12.00;99.90
18426;DHT22;9340;48.756;9.226;2022-08-07T04:25:46;12.10;99.90
18426;DHT22;9340;48.756;9.226;2022-08-07T04:28:14;12.00;99.90
18426;DHT22;9340;48.756;9.226;2022-08-07T04:30:42;12.00;99.90
18426;DHT22;9340;48.756;9.226;2022-08-07T04:33:12;12.00;99.90
18426;DHT22;9340;48.756;9.226;2022-08-07T04:35:39;12.10;99.90
18426;DHT22;9340;48.756;9.226;2022-08-07T04:38:07;12.20;99.90
18426;DHT22;9340;48.756;9.226;2022-08-07T04:40:35;12.20;99.90
18426;DHT22;9340;48.756;9.226;2022-08-07T04:43:04;12.30;99.90
18426;DHT22;9340;48.756;9.226;2022-08-07T04:45:37;12.20;99.90
18426;DHT22;9340;48.756;9.226;2022-08-07T04:48:11;12.20;99.90
18426;DHT22;9340;48.756;9.226;2022-08-07T04:50:45;12.40;99.90
18426;DHT22;9340;48.756;9.226;2022-08-07T04:53:20;12.40;99.90
18426;DHT22;9340;48.756;9.226;2022-08-07T04:55:54;12.50;99.90
18426;DHT22;9340;48.756;9.226;2022-08-07T04:58:29;12.50;99.90
18426;DHT22;9340;48.756;9.226;2022-08-07T05:01:00;12.60;99.90
18426;DHT22;9340;48.756;9.226;2022-08-07T05:03:46;12.70;99.90
18426;DHT22;9340;48.756;9.226;2022-08-07T05:06:18;12.80;99.90
18426;DHT22;9340;48.756;9.226;2022-08-07T05:08:49;13.00;99.90
18426;DHT22;9340;48.756;9.226;2022-08-07T05:11:23;13.00;99.90
18426;DHT22;9340;48.756;9.226;2022-08-07T05:13:54;13.10;99.90
18426;DHT22;9340;48.756;9.226;2022-08-07T05:16:26;13.20;99.90
18426;DHT22;9340;48.756;9.226;2022-08-07T05:19:01;13.20;99.90
18426;DHT22;9340;48.756;9.226;2022-08-07T05:21:29;13.40;99.90
18426;DHT22;9340;48.756;9.226;2022-08-07T05:23:58;13.50;99.90
18426;DHT22;9340;48.756;9.226;2022-08-07T05:26:28;13.50;99.90
18426;DHT22;9340;48.756;9.226;2022-08-07T05:28:59;13.60;99.90
18426;DHT22;9340;48.756;9.226;2022-08-07T05:31:28;13.60;99.90
18426;DHT22;9340;48.756;9.226;2022-08-07T05:34:00;13.70;99.90
18426;DHT22;9340;48.756;9.226;2022-08-07T05:36:28;13.80;99.90
18426;DHT22;9340;48.756;9.226;2022-08-07T05:38:56;13.90;99.90
18426;DHT22;9340;48.756;9.226;2022-08-07T05:41:24;14.00;99.90
18426;DHT22;9340;48.756;9.226;2022-08-07T05:43:53;14.30;99.90
18426;DHT22;9340;48.756;9.226;2022-08-07T05:46:22;14.50;99.90
18426;DHT22;9340;48.756;9.226;2022-08-07T05:48:50;14.80;99.90
18426;DHT22;9340;48.756;9.226;2022-08-07T05:51:19;15.00;99.90
18426;DHT22;9340;48.756;9.226;2022-08-07T05:53:47;15.40;99.90
18426;DHT22;9340;48.756;9.226;2022-08-07T05:56:17;16.40;99.90
18426;DHT22;9340;48.756;9.226;2022-08-07T05:58:45;17.70;99.90
18426;DHT22;9340;48.756;9.226;2022-08-07T06:01:13;18.60;99.90
18426;DHT22;9340;48.756;9.226;2022-08-07T06:03:43;19.50;99.90
18426;DHT22;9340;48.756;9.226;2022-08-07T06:06:11;20.00;99.90
18426;DHT22;9340;48.756;9.226;2022-08-07T06:08:40;20.30;99.90
18426;DHT22;9340;48.756;9.226;2022-08-07T06:11:07;20.40;99.90
18426;DHT22;9340;48.756;9.226;2022-08-07T06:13:35;20.50;99.90
18426;DHT22;9340;48.756;9.226;2022-08-07T06:16:03;20.50;99.90
18426;DHT22;9340;48.756;9.226;2022-08-07T06:18:31;20.50;99.90
18426;DHT22;9340;48.756;9.226;2022-08-07T06:20:59;20.40;99.90
18426;DHT22;9340;48.756;9.226;2022-08-07T06:23:27;20.50;99.90
18426;DHT22;9340;48.756;9.226;2022-08-07T06:25:55;20.30;99.90
18426;DHT22;9340;48.756;9.226;2022-08-07T06:28:22;20.20;99.90
18426;DHT22;9340;48.756;9.226;2022-08-07T06:30:49;20.00;99.90
18426;DHT22;9340;48.756;9.226;2022-08-07T06:33:16;19.80;99.90
18426;DHT22;9340;48.756;9.226;2022-08-07T06:35:44;19.60;99.90
18426;DHT22;9340;48.756;9.226;2022-08-07T06:38:11;19.40;99.90
18426;DHT22;9340;48.756;9.226;2022-08-07T06:40:41;19.00;99.90
18426;DHT22;9340;48.756;9.226;2022-08-07T06:43:11;18.80;99.90
18426;DHT22;9340;48.756;9.226;2022-08-07T06:45:39;18.60;99.90
18426;DHT22;9340;48.756;9.226;2022-08-07T06:48:06;18.50;99.90
18426;DHT22;9340;48.756;9.226;2022-08-07T06:50:34;18.50;99.90
18426;DHT22;9340;48.756;9.226;2022-08-07T06:53:02;18.40;99.90
18426;DHT22;9340;48.756;9.226;2022-08-07T06:55:30;18.40;99.90
18426;DHT22;9340;48.756;9.226;2022-08-07T06:58:00;18.30;99.90
18426;DHT22;9340;48.756;9.226;2022-08-07T07:00:33;18.40;99.90
18426;DHT22;9340;48.756;9.226;2022-08-07T07:03:01;18.50;99.90
18426;DHT22;9340;48.756;9.226;2022-08-07T07:05:29;18.50;99.90
18426;DHT22;9340;48.756;9.226;2022-08-07T07:07:56;18.50;99.90
18426;DHT22;9340;48.756;9.226;2022-08-07T07:10:30;18.60;99.90
18426;DHT22;9340;48.756;9.226;2022-08-07T07:13:02;18.70;99.90
18426;DHT22;9340;48.756;9.226;2022-08-07T07:15:33;18.80;99.90
18426;DHT22;9340;48.756;9.226;2022-08-07T07:18:04;18.90;99.90
18426;DHT22;9340;48.756;9.226;2022-08-07T07:20:35;18.90;99.90
18426;DHT22;9340;48.756;9.226;2022-08-07T07:23:03;19.00;99.90
18426;DHT22;9340;48.756;9.226;2022-08-07T07:25:33;19.10;99.90
18426;DHT22;9340;48.756;9.226;2022-08-07T07:28:17;19.30;99.90
18426;DHT22;9340;48.756;9.226;2022-08-07T07:30:49;19.50;99.90
18426;DHT22;9340;48.756;9.226;2022-08-07T07:33:17;19.60;99.90
18426;DHT22;9340;48.756;9.226;2022-08-07T07:35:47;19.70;99.90
18426;DHT22;9340;48.756;9.226;2022-08-07T07:38:14;19.80;99.90
18426;DHT22;9340;48.756;9.226;2022-08-07T07:40:44;19.90;99.90
18426;DHT22;9340;48.756;9.226;2022-08-07T07:43:11;20.00;99.90
18426;DHT22;9340;48.756;9.226;2022-08-07T07:45:39;20.00;99.90
18426;DHT22;9340;48.756;9.226;2022-08-07T07:48:10;20.00;99.90
18426;DHT22;9340;48.756;9.226;2022-08-07T07:50:38;20.00;99.90
18426;DHT22;9340;48.756;9.226;2022-08-07T07:53:07;20.10;99.90
18426;DHT22;9340;48.756;9.226;2022-08-07T07:55:36;20.30;99.90
18426;DHT22;9340;48.756;9.226;2022-08-07T07:58:04;20.40;99.90
18426;DHT22;9340;48.756;9.226;2022-08-07T08:00:32;20.50;99.90
18426;DHT22;9340;48.756;9.226;2022-08-07T08:03:02;20.60;99.90
18426;DHT22;9340;48.756;9.226;2022-08-07T08:05:35;20.70;99.90
18426;DHT22;9340;48.756;9.226;2022-08-07T08:08:04;20.80;99.90
18426;DHT22;9340;48.756;9.226;2022-08-07T08:10:31;21.00;99.90
18426;DHT22;9340;48.756;9.226;2022-08-07T08:12:59;21.10;99.90
18426;DHT22;9340;48.756;9.226;2022-08-07T08:15:28;21.20;99.90
18426;DHT22;9340;48.756;9.226;2022-08-07T08:17:56;21.40;99.90
18426;DHT22;9340;48.756;9.226;2022-08-07T08:20:24;21.40;99.90
18426;DHT22;9340;48.756;9.226;2022-08-07T08:22:55;21.50;99.90
18426;DHT22;9340;48.756;9.226;2022-08-07T08:25:41;21.50;99.90
18426;DHT22;9340;48.756;9.226;2022-08-07T08:28:26;21.60;99.90
18426;DHT22;9340;48.756;9.226;2022-08-07T08:30:57;21.60;99.90
18426;DHT22;9340;48.756;9.226;2022-08-07T08:33:28;21.70;99.90
18426;DHT22;9340;48.756;9.226;2022-08-07T08:35:57;21.80;99.90
18426;DHT22;9340;48.756;9.226;2022-08-07T08:38:30;21.90;99.90
18426;DHT22;9340;48.756;9.226;2022-08-07T08:41:02;21.80;99.90
18426;DHT22;9340;48.756;9.226;2022-08-07T08:43:34;21.90;99.90
18426;DHT22;9340;48.756;9.226;2022-08-07T08:46:06;21.90;99.90
18426;DHT22;9340;48.756;9.226;2022-08-07T08:48:38;22.00;99.90
18426;DHT22;9340;48.756;9.226;2022-08-07T08:51:15;22.00;99.90
18426;DHT22;9340;48.756;9.226;2022-08-07T08:53:50;22.00;99.90
18426;DHT22;9340;48.756;9.226;2022-08-07T08:56:22;22.10;99.90
18426;DHT22;9340;48.756;9.226;2022-08-07T08:58:52;22.20;99.90
18426;DHT22;9340;48.756;9.226;2022-08-07T09:01:25;22.40;99.90
18426;DHT22;9340;48.756;9.226;2022-08-07T09:03:58;22.40;99.90
18426;DHT22;9340;48.756;9.226;2022-08-07T09:06:43;22.30;99.90
18426;DHT22;9340;48.756;9.226;2022-08-07T09:09:31;22.30;99.90
18426;DHT22;9340;48.756;9.226;2022-08-07T09:12:11;22.50;99.90
18426;DHT22;9340;48.756;9.226;2022-08-07T09:14:51;22.50;99.90
18426;DHT22;9340;48.756;9.226;2022-08-07T09:17:30;22.40;99.90
18426;DHT22;9340;48.756;9.226;2022-08-07T09:20:05;22.50;99.90
18426;DHT22;9340;48.756;9.226;2022-08-07T09:22:50;22.60;99.90
18426;DHT22;9340;48.756;9.226;2022-08-07T09:25:25;22.70;99.90
18426;DHT22;9340;48.756;9.226;2022-08-07T09:27:58;22.50;99.90
18426;DHT22;9340;48.756;9.226;2022-08-07T09:30:36;22.60;99.90
18426;DHT22;9340;48.756;9.226;2022-08-07T09:33:22;22.60;99.90
18426;DHT22;9340;48.756;9.226;2022-08-07T09:35:57;22.80;99.90
18426;DHT22;9340;48.756;9.226;2022-08-07T09:38:35;22.90;99.90
18426;DHT22;9340;48.756;9.226;2022-08-07T09:41:11;22.90;99.90
18426;DHT22;9340;48.756;9.226;2022-08-07T09:43:55;23.10;99.90
18426;DHT22;9340;48.756;9.226;2022-08-07T09:46:35;23.20;99.90
18426;DHT22;9340;48.756;9.226;2022-08-07T09:49:14;23.30;99.90
18426;DHT22;9340;48.756;9.226;2022-08-07T09:51:54;23.40;99.20
18426;DHT22;9340;48.756;9.226;2022-08-07T09:54:27;23.50;98.80
18426;DHT22;9340;48.756;9.226;2022-08-07T09:57:27;23.70;97.70
18426;DHT22;9340;48.756;9.226;2022-08-07T10:00:05;23.50;98.20
18426;DHT22;9340;48.756;9.226;2022-08-07T10:02:55;23.60;97.40
18426;DHT22;9340;48.756;9.226;2022-08-07T10:05:38;23.60;98.50
18426;DHT22;9340;48.756;9.226;2022-08-07T10:08:30;23.70;97.40
18426;DHT22;9340;48.756;9.226;2022-08-07T10:11:04;23.80;95.90
18426;DHT22;9340;48.756;9.226;2022-08-07T10:13:49;23.70;96.20
18426;DHT22;9340;48.756;9.226;2022-08-07T10:16:54;23.80;96.20
18426;DHT22;9340;48.756;9.226;2022-08-07T10:19:54;23.90;96.80
18426;DHT22;9340;48.756;9.226;2022-08-07T10:22:33;23.50;97.70
18426;DHT22;9340;48.756;9.226;2022-08-07T10:25:22;23.80;95.60
18426;DHT22;9340;48.756;9.226;2022-08-07T10:28:02;23.90;94.80
18426;DHT22;9340;48.756;9.226;2022-08-07T10:30:47;24.00;94.10
18426;DHT22;9340;48.756;9.226;2022-08-07T10:33:36;24.10;94.60
18426;DHT22;9340;48.756;9.226;2022-08-07T10:36:19;24.20;94.60
18426;DHT22;9340;48.756;9.226;2022-08-07T10:38:51;24.20;94.90
18426;DHT22;9340;48.756;9.226;2022-08-07T10:41:28;24.30;95.20
18426;DHT22;9340;48.756;9.226;2022-08-07T10:44:03;24.20;95.60
18426;DHT22;9340;48.756;9.226;2022-08-07T10:46:38;24.40;95.70
18426;DHT22;9340;48.756;9.226;2022-08-07T10:49:09;24.40;94.30
18426;DHT22;9340;48.756;9.226;2022-08-07T10:51:47;24.40;94.40
18426;DHT22;9340;48.756;9.226;2022-08-07T10:54:20;24.40;94.10
18426;DHT22;9340;48.756;9.226;2022-08-07T10:57:01;24.40;93.80
18426;DHT22;9340;48.756;9.226;2022-08-07T10:59:39;24.50;94.20
18426;DHT22;9340;48.756;9.226;2022-08-07T11:02:14;24.60;93.90
18426;DHT22;9340;48.756;9.226;2022-08-07T11:04:53;24.60;93.60
18426;DHT22;9340;48.756;9.226;2022-08-07T11:07:30;24.30;94.50
18426;DHT22;9340;48.756;9.226;2022-08-07T11:10:04;24.20;94.70
18426;DHT22;9340;48.756;9.226;2022-08-07T11:12:37;24.30;94.20
18426;DHT22;9340;48.756;9.226;2022-08-07T11:15:08;24.40;93.90
18426;DHT22;9340;48.756;9.226;2022-08-07T11:17:45;24.50;93.30
18426;DHT22;9340;48.756;9.226;2022-08-07T11:20:18;24.50;93.50
18426;DHT22;9340;48.756;9.226;2022-08-07T11:22:52;24.60;93.80
18426;DHT22;9340;48.756;9.226;2022-08-07T11:25:23;24.60;94.50
18426;DHT22;9340;48.756;9.226;2022-08-07T11:27:56;24.60;93.80
18426;DHT22;9340;48.756;9.226;2022-08-07T11:30:33;24.70;93.50
18426;DHT22;9340;48.756;9.226;2022-08-07T11:33:10;24.80;92.50
18426;DHT22;9340;48.756;9.226;2022-08-07T11:35:45;24.80;92.60
18426;DHT22;9340;48.756;9.226;2022-08-07T11:38:24;25.00;92.80
18426;DHT22;9340;48.756;9.226;2022-08-07T11:40:56;25.00;93.50
18426;DHT22;9340;48.756;9.226;2022-08-07T11:43:25;25.00;92.70
18426;DHT22;9340;48.756;9.226;2022-08-07T11:46:15;25.10;92.10
18426;DHT22;9340;48.756;9.226;2022-08-07T11:49:24;25.10;93.30
18426;DHT22;9340;48.756;9.226;2022-08-07T11:52:07;25.30;92.90
18426;DHT22;9340;48.756;9.226;2022-08-07T11:54:57;25.30;91.70
18426;DHT22;9340;48.756;9.226;2022-08-07T11:57:32;25.30;91.40
18426;DHT22;9340;48.756;9.226;2022-08-07T12:00:05;25.40;91.50
18426;DHT22;9340;48.756;9.226;2022-08-07T12:03:01;25.30;91.80
18426;DHT22;9340;48.756;9.226;2022-08-07T12:05:41;25.40;91.30
18426;DHT22;9340;48.756;9.226;2022-08-07T12:08:17;25.40;91.40
18426;DHT22;9340;48.756;9.226;2022-08-07T12:10:48;25.50;91.80
18426;DHT22;9340;48.756;9.226;2022-08-07T12:13:24;25.60;91.10
18426;DHT22;9340;48.756;9.226;2022-08-07T12:15:55;25.70;91.40
18426;DHT22;9340;48.756;9.226;2022-08-07T12:18:31;25.80;91.20
18426;DHT22;9340;48.756;9.226;2022-08-07T12:21:23;25.90;90.50
18426;DHT22;9340;48.756;9.226;2022-08-07T12:23:56;25.80;90.70
18426;DHT22;9340;48.756;9.226;2022-08-07T12:26:28;25.70;90.00
18426;DHT22;9340;48.756;9.226;2022-08-07T12:29:02;25.70;90.20
18426;DHT22;9340;48.756;9.226;2022-08-07T12:31:36;25.80;89.80
18426;DHT22;9340;48.756;9.226;2022-08-07T12:34:04;25.70;91.60
18426;DHT22;9340;48.756;9.226;2022-08-07T12:36:34;25.80;90.60
18426;DHT22;9340;48.756;9.226;2022-08-07T12:39:03;26.00;90.50
18426;DHT22;9340;48.756;9.226;2022-08-07T12:41:33;26.00;90.60
18426;DHT22;9340;48.756;9.226;2022-08-07T12:44:04;26.20;90.10
18426;DHT22;9340;48.756;9.226;2022-08-07T12:46:40;26.00;89.40
18426;DHT22;9340;48.756;9.226;2022-08-07T12:49:14;26.00;90.00
18426;DHT22;9340;48.756;9.226;2022-08-07T12:51:50;25.90;90.80
18426;DHT22;9340;48.756;9.226;2022-08-07T12:54:24;26.00;90.50
18426;DHT22;9340;48.756;9.226;2022-08-07T12:56:53;26.20;90.60
18426;DHT22;9340;48.756;9.226;2022-08-07T12:59:24;26.20;90.70
18426;DHT22;9340;48.756;9.226;2022-08-07T13:02:01;26.30;89.90
18426;DHT22;9340;48.756;9.226;2022-08-07T13:04:47;26.40;90.30
18426;DHT22;9340;48.756;9.226;2022-08-07T13:07:41;26.50;89.10
18426;DHT22;9340;48.756;9.226;2022-08-07T13:10:21;26.40;89.60
18426;DHT22;9340;48.756;9.226;2022-08-07T13:13:05;26.40;89.50
18426;DHT22;9340;48.756;9.226;2022-08-07T13:15:40;26.30;90.50
18426;DHT22;9340;48.756;9.226;2022-08-07T13:18:17;26.30;89.30
18426;DHT22;9340;48.756;9.226;2022-08-07T13:20:51;26.40;89.40
18426;DHT22;9340;48.756;9.226;2022-08-07T13:23:31;26.50;88.90
18426;DHT22;9340;48.756;9.226;2022-08-07T13:26:03;26.00;90.60
18426;DHT22;9340;48.756;9.226;2022-08-07T13:28:36;26.20;90.10
18426;DHT22;9340;48.756;9.226;2022-08-07T13:31:09;26.30;90.50
18426;DHT22;9340;48.756;9.226;2022-08-07T13:33:44;26.10;89.90
18426;DHT22;9340;48.756;9.226;2022-08-07T13:36:29;26.20;89.40
18426;DHT22;9340;48.756;9.226;2022-08-07T13:39:03;26.30;90.20
18426;DHT22;9340;48.756;9.226;2022-08-07T13:41:38;26.40;90.20
18426;DHT22;9340;48.756;9.226;2022-08-07T13:44:06;26.50;88.50
18426;DHT22;9340;48.756;9.226;2022-08-07T13:46:35;26.60;90.00
18426;DHT22;9340;48.756;9.226;2022-08-07T13:49:04;26.70;89.10
18426;DHT22;9340;48.756;9.226;2022-08-07T13:51:33;26.70;89.40
18426;DHT22;9340;48.756;9.226;2022-08-07T13:54:04;26.80;88.40
18426;DHT22;9340;48.756;9.226;2022-08-07T13:56:36;26.90;87.90
18426;DHT22;9340;48.756;9.226;2022-08-07T13:59:07;27.00;87.40
18426;DHT22;9340;48.756;9.226;2022-08-07T14:01:37;27.00;86.20
18426;DHT22;9340;48.756;9.226;2022-08-07T14:04:10;26.90;87.50
18426;DHT22;9340;48.756;9.226;2022-08-07T14:06:39;26.90;87.70
18426;DHT22;9340;48.756;9.226;2022-08-07T14:09:15;27.10;87.80
18426;DHT22;9340;48.756;9.226;2022-08-07T14:11:45;27.10;87.80
18426;DHT22;9340;48.756;9.226;2022-08-07T14:14:14;27.10;86.70
18426;DHT22;9340;48.756;9.226;2022-08-07T14:16:45;27.10;86.10
18426;DHT22;9340;48.756;9.226;2022-08-07T14:19:16;27.10;87.50
18426;DHT22;9340;48.756;9.226;2022-08-07T14:21:45;27.10;86.70
18426;DHT22;9340;48.756;9.226;2022-08-07T14:24:21;27.20;84.90
18426;DHT22;9340;48.756;9.226;2022-08-07T14:26:54;27.20;85.10
18426;DHT22;9340;48.756;9.226;2022-08-07T14:29:24;27.20;84.50
18426;DHT22;9340;48.756;9.226;2022-08-07T14:31:52;27.30;85.20
18426;DHT22;9340;48.756;9.226;2022-08-07T14:34:20;27.40;85.30
18426;DHT22;9340;48.756;9.226;2022-08-07T14:36:49;27.40;84.00
18426;DHT22;9340;48.756;9.226;2022-08-07T14:39:18;27.50;86.70
18426;DHT22;9340;48.756;9.226;2022-08-07T14:41:47;27.40;85.50
18426;DHT22;9340;48.756;9.226;2022-08-07T14:44:15;27.60;83.50
18426;DHT22;9340;48.756;9.226;2022-08-07T14:46:44;27.60;83.80
18426;DHT22;9340;48.756;9.226;2022-08-07T14:49:12;27.50;87.20
18426;DHT22;9340;48.756;9.226;2022-08-07T14:51:41;27.40;85.10
18426;DHT22;9340;48.756;9.226;2022-08-07T14:54:09;27.40;83.80
18426;DHT22;9340;48.756;9.226;2022-08-07T14:56:42;27.10;86.40
18426;DHT22;9340;48.756;9.226;2022-08-07T14:59:12;26.90;85.00
18426;DHT22;9340;48.756;9.226;2022-08-07T15:01:40;26.90;84.50
18426;DHT22;9340;48.756;9.226;2022-08-07T15:04:08;26.90;83.20
18426;DHT22;9340;48.756;9.226;2022-08-07T15:06:37;26.90;84.50
18426;DHT22;9340;48.756;9.226;2022-08-07T15:09:08;26.90;84.60
18426;DHT22;9340;48.756;9.226;2022-08-07T15:11:38;27.00;85.50
18426;DHT22;9340;48.756;9.226;2022-08-07T15:14:10;27.20;85.60
18426;DHT22;9340;48.756;9.226;2022-08-07T15:16:43;27.20;86.10
18426;DHT22;9340;48.756;9.226;2022-08-07T15:19:13;27.30;84.00
18426;DHT22;9340;48.756;9.226;2022-08-07T15:21:42;27.20;85.40
18426;DHT22;9340;48.756;9.226;2022-08-07T15:24:12;27.20;86.80
18426;DHT22;9340;48.756;9.226;2022-08-07T15:26:43;27.10;85.40
18426;DHT22;9340;48.756;9.226;2022-08-07T15:29:14;27.10;83.40
18426;DHT22;9340;48.756;9.226;2022-08-07T15:31:47;27.10;84.40
18426;DHT22;9340;48.756;9.226;2022-08-07T15:34:14;27.10;83.60
18426;DHT22;9340;48.756;9.226;2022-08-07T15:36:42;26.80;84.90
18426;DHT22;9340;48.756;9.226;2022-08-07T15:39:11;26.80;85.60
18426;DHT22;9340;48.756;9.226;2022-08-07T15:41:55;26.70;86.80
18426;DHT22;9340;48.756;9.226;2022-08-07T15:44:27;26.60;84.30
18426;DHT22;9340;48.756;9.226;2022-08-07T15:46:57;26.70;84.20
18426;DHT22;9340;48.756;9.226;2022-08-07T15:49:28;26.60;84.40
18426;DHT22;9340;48.756;9.226;2022-08-07T15:51:55;26.60;85.90
18426;DHT22;9340;48.756;9.226;2022-08-07T15:54:24;26.70;85.30
18426;DHT22;9340;48.756;9.226;2022-08-07T15:56:57;26.60;85.40
18426;DHT22;9340;48.756;9.226;2022-08-07T15:59:27;26.70;83.80
18426;DHT22;9340;48.756;9.226;2022-08-07T16:01:56;26.60;85.10
18426;DHT22;9340;48.756;9.226;2022-08-07T16:04:28;26.70;84.00
18426;DHT22;9340;48.756;9.226;2022-08-07T16:06:58;26.60;84.30
18426;DHT22;9340;48.756;9.226;2022-08-07T16:09:29;26.50;85.30
18426;DHT22;9340;48.756;9.226;2022-08-07T16:12:05;26.50;86.20
18426;DHT22;9340;48.756;9.226;2022-08-07T16:14:58;26.50;85.00